Terminal Aerodrome Forecast
Issued by NWS

Home | Current Version | Previous Version | Graphics & Text | Print | Product List | Glossary On
Versions: 1 2 3 4 5 6 7 8 9 10 11 12 13 14 15 16 17 18 19
357
FTUS43 KTOP 181727
TAFFOE
TAF
KFOE 181727Z 1818/1918 18004KT P6SM FEW250
     FM191000 18006KT 5SM BR BKN150
     FM191200 16006KT 2SM BR BKN008
     FM191500 16008KT P6SM BKN008
     FM191600 16009KT P6SM BKN010=

USA.gov is the U.S. government's official web portal to all federal, state and local government web resources and services.